Overview Statistics Trail Chart Weather Telemetry Raw packets
 

This is the latest recevied weather packets stored in our database for station/object YO8PIC-13. If no packets are shown the sender has not sent any weather packets the latest 10 day(s).

<< 34 35 36 37 38 39 40 >>
Time Temp. Humidity Pressure Rain* Wind** Luminosity Snow
1787946736 17.78° C 74% 1025.5 hPa - - - -
1787946134 17.78° C 73% 1025.4 hPa - - - -
1787945534 18.33° C 71% 1025.6 hPa - - - -
1787944935 18.33° C 71% 1025.6 hPa - - - -
1787944334 18.89° C 67% 1025.7 hPa - - - -
1787943734 18.89° C 65% 1025.7 hPa - - - -
1787943134 18.89° C 64% 1025.6 hPa - - - -
1787942534 19.44° C 64% 1025.6 hPa - - - -
1787941934 19.44° C 62% 1025.6 hPa - - - -
1787941334 20° C 59% 1025.5 hPa - - - -
1787940734 20.56° C 57% 1025.4 hPa - - - -
1787940135 20.56° C 57% 1025.6 hPa - - - -
1787939535 20.56° C 57% 1025.6 hPa - - - -
1787938934 20.56° C 56% 1025.6 hPa - - - -
1787938334 21.11° C 54% 1025.4 hPa - - - -
1787937734 21.11° C 52% 1025.3 hPa - - - -
1787937134 21.67° C 51% 1025.3 hPa - - - -
1787936534 21.67° C 49% 1025.1 hPa - - - -
1787935335 22.78° C 45% 1024.8 hPa - - - -
1787934734 23.33° C 44% 1024.6 hPa - - - -
1787934135 23.89° C 41% 1024.6 hPa - - - -
1787933534 23.89° C 40% 1024.5 hPa - - - -
1787932935 25° C 36% 1024.4 hPa - - - -
1787932334 25.56° C 35% 1024.5 hPa - - - -
1787931735 29.44° C 29% 1024.5 hPa - - - -

* Rain since midnight (hover to see other rain measurements)
** Current wind speed in m/s (hover to see current wind gust speed)